sensor_id;sensor_type;location;lat;lon;timestamp;temperature;humidity
46752;DHT22;32497;48.936;9.270;2023-11-19T00:00:52;7.60;92.60
46752;DHT22;32497;48.936;9.270;2023-11-19T00:05:54;7.60;92.80
46752;DHT22;32497;48.936;9.270;2023-11-19T00:10:56;7.60;92.90
46752;DHT22;32497;48.936;9.270;2023-11-19T00:15:57;7.60;93.00
46752;DHT22;32497;48.936;9.270;2023-11-19T00:20:59;7.70;93.00
46752;DHT22;32497;48.936;9.270;2023-11-19T00:26:00;7.70;93.10
46752;DHT22;32497;48.936;9.270;2023-11-19T00:31:01;7.70;93.30
46752;DHT22;32497;48.936;9.270;2023-11-19T00:36:05;7.80;93.40
46752;DHT22;32497;48.936;9.270;2023-11-19T00:41:06;7.80;93.40
46752;DHT22;32497;48.936;9.270;2023-11-19T00:46:07;7.90;93.40
46752;DHT22;32497;48.936;9.270;2023-11-19T00:51:12;8.00;93.30
46752;DHT22;32497;48.936;9.270;2023-11-19T00:56:13;8.10;93.30
46752;DHT22;32497;48.936;9.270;2023-11-19T01:01:14;8.10;93.30
46752;DHT22;32497;48.936;9.270;2023-11-19T01:06:26;8.10;93.30
46752;DHT22;32497;48.936;9.270;2023-11-19T01:11:27;8.10;93.30
46752;DHT22;32497;48.936;9.270;2023-11-19T01:16:28;8.10;93.20
46752;DHT22;32497;48.936;9.270;2023-11-19T01:21:31;8.20;93.20
46752;DHT22;32497;48.936;9.270;2023-11-19T01:26:32;8.20;93.10
46752;DHT22;32497;48.936;9.270;2023-11-19T01:31:33;8.30;93.20
46752;DHT22;32497;48.936;9.270;2023-11-19T01:36:36;8.30;93.30
46752;DHT22;32497;48.936;9.270;2023-11-19T01:41:37;8.40;93.30
46752;DHT22;32497;48.936;9.270;2023-11-19T01:46:40;8.40;93.30
46752;DHT22;32497;48.936;9.270;2023-11-19T01:51:44;8.40;93.30
46752;DHT22;32497;48.936;9.270;2023-11-19T01:56:46;8.50;93.20
46752;DHT22;32497;48.936;9.270;2023-11-19T02:01:47;8.60;93.20
46752;DHT22;32497;48.936;9.270;2023-11-19T02:06:51;8.60;93.10
46752;DHT22;32497;48.936;9.270;2023-11-19T02:11:55;8.60;93.20
46752;DHT22;32497;48.936;9.270;2023-11-19T02:16:56;8.70;93.10
46752;DHT22;32497;48.936;9.270;2023-11-19T02:21:58;8.70;93.20
46752;DHT22;32497;48.936;9.270;2023-11-19T02:27:07;8.70;93.10
46752;DHT22;32497;48.936;9.270;2023-11-19T02:32:11;8.70;93.20
46752;DHT22;32497;48.936;9.270;2023-11-19T02:37:12;8.70;93.20
46752;DHT22;32497;48.936;9.270;2023-11-19T02:42:13;8.90;93.30
46752;DHT22;32497;48.936;9.270;2023-11-19T02:47:15;8.90;93.30
46752;DHT22;32497;48.936;9.270;2023-11-19T02:52:16;9.00;93.30
46752;DHT22;32497;48.936;9.270;2023-11-19T02:57:17;9.00;93.30
46752;DHT22;32497;48.936;9.270;2023-11-19T03:02:20;9.00;93.30
46752;DHT22;32497;48.936;9.270;2023-11-19T03:07:21;9.10;93.30
46752;DHT22;32497;48.936;9.270;2023-11-19T03:12:23;9.20;93.30
46752;DHT22;32497;48.936;9.270;2023-11-19T03:17:25;9.20;93.30
46752;DHT22;32497;48.936;9.270;2023-11-19T03:22:27;9.20;93.20
46752;DHT22;32497;48.936;9.270;2023-11-19T03:27:28;9.20;93.30
46752;DHT22;32497;48.936;9.270;2023-11-19T03:32:31;9.20;93.40
46752;DHT22;32497;48.936;9.270;2023-11-19T03:37:32;9.20;93.30
46752;DHT22;32497;48.936;9.270;2023-11-19T03:42:33;9.20;93.40
46752;DHT22;32497;48.936;9.270;2023-11-19T03:47:36;9.20;93.40
46752;DHT22;32497;48.936;9.270;2023-11-19T03:52:37;9.20;93.40
46752;DHT22;32497;48.936;9.270;2023-11-19T03:57:38;9.30;93.50
46752;DHT22;32497;48.936;9.270;2023-11-19T04:02:41;9.30;93.60
46752;DHT22;32497;48.936;9.270;2023-11-19T04:07:42;9.30;93.50
46752;DHT22;32497;48.936;9.270;2023-11-19T04:12:43;9.40;93.60
46752;DHT22;32497;48.936;9.270;2023-11-19T04:17:46;9.40;93.70
46752;DHT22;32497;48.936;9.270;2023-11-19T04:22:47;9.30;93.70
46752;DHT22;32497;48.936;9.270;2023-11-19T04:27:49;9.30;93.80
46752;DHT22;32497;48.936;9.270;2023-11-19T04:32:52;9.30;93.70
46752;DHT22;32497;48.936;9.270;2023-11-19T04:37:53;9.30;93.70
46752;DHT22;32497;48.936;9.270;2023-11-19T04:42:54;9.30;93.80
46752;DHT22;32497;48.936;9.270;2023-11-19T04:47:56;9.40;93.90
46752;DHT22;32497;48.936;9.270;2023-11-19T04:52:57;9.50;93.80
46752;DHT22;32497;48.936;9.270;2023-11-19T04:57:58;9.50;93.90
46752;DHT22;32497;48.936;9.270;2023-11-19T05:03:01;9.60;93.70
46752;DHT22;32497;48.936;9.270;2023-11-19T05:08:02;9.60;93.70
46752;DHT22;32497;48.936;9.270;2023-11-19T05:13:03;9.70;93.70
46752;DHT22;32497;48.936;9.270;2023-11-19T05:18:06;9.70;93.60
46752;DHT22;32497;48.936;9.270;2023-11-19T05:23:07;9.70;93.60
46752;DHT22;32497;48.936;9.270;2023-11-19T05:28:08;9.80;93.60
46752;DHT22;32497;48.936;9.270;2023-11-19T05:33:10;9.90;93.50
46752;DHT22;32497;48.936;9.270;2023-11-19T05:38:11;9.80;93.50
46752;DHT22;32497;48.936;9.270;2023-11-19T05:43:12;9.90;93.40
46752;DHT22;32497;48.936;9.270;2023-11-19T05:48:15;9.90;93.40
46752;DHT22;32497;48.936;9.270;2023-11-19T05:53:16;9.90;93.30
46752;DHT22;32497;48.936;9.270;2023-11-19T05:58:17;10.00;93.50
46752;DHT22;32497;48.936;9.270;2023-11-19T06:03:20;10.10;93.40
46752;DHT22;32497;48.936;9.270;2023-11-19T06:08:21;10.20;93.50
46752;DHT22;32497;48.936;9.270;2023-11-19T06:13:22;10.20;93.40
46752;DHT22;32497;48.936;9.270;2023-11-19T06:18:24;10.20;93.40
46752;DHT22;32497;48.936;9.270;2023-11-19T06:23:25;10.30;93.40
46752;DHT22;32497;48.936;9.270;2023-11-19T06:28:27;10.30;93.40
46752;DHT22;32497;48.936;9.270;2023-11-19T06:33:29;10.30;93.40
46752;DHT22;32497;48.936;9.270;2023-11-19T06:38:30;10.30;93.30
46752;DHT22;32497;48.936;9.270;2023-11-19T06:43:31;10.30;93.20
46752;DHT22;32497;48.936;9.270;2023-11-19T06:48:34;10.40;93.30
46752;DHT22;32497;48.936;9.270;2023-11-19T06:53:35;10.50;93.30
46752;DHT22;32497;48.936;9.270;2023-11-19T06:58:36;10.50;93.20
46752;DHT22;32497;48.936;9.270;2023-11-19T07:03:39;10.50;93.20
46752;DHT22;32497;48.936;9.270;2023-11-19T07:08:41;10.60;93.20
46752;DHT22;32497;48.936;9.270;2023-11-19T07:13:43;10.50;93.20
46752;DHT22;32497;48.936;9.270;2023-11-19T07:18:45;10.60;93.20
46752;DHT22;32497;48.936;9.270;2023-11-19T07:23:47;10.70;93.20
46752;DHT22;32497;48.936;9.270;2023-11-19T07:28:48;10.70;92.90
46752;DHT22;32497;48.936;9.270;2023-11-19T07:33:50;10.70;93.00
46752;DHT22;32497;48.936;9.270;2023-11-19T07:38:51;10.80;93.00
46752;DHT22;32497;48.936;9.270;2023-11-19T07:43:53;10.80;92.90
46752;DHT22;32497;48.936;9.270;2023-11-19T07:48:55;10.80;93.00
46752;DHT22;32497;48.936;9.270;2023-11-19T07:53:56;10.90;92.90
46752;DHT22;32497;48.936;9.270;2023-11-19T07:58:57;11.00;92.80
46752;DHT22;32497;48.936;9.270;2023-11-19T08:04:00;10.90;92.70
46752;DHT22;32497;48.936;9.270;2023-11-19T08:09:01;10.90;92.90
46752;DHT22;32497;48.936;9.270;2023-11-19T08:14:02;10.90;92.90
46752;DHT22;32497;48.936;9.270;2023-11-19T08:19:05;11.00;92.90
46752;DHT22;32497;48.936;9.270;2023-11-19T08:24:06;11.10;92.70
46752;DHT22;32497;48.936;9.270;2023-11-19T08:29:07;11.20;92.40
46752;DHT22;32497;48.936;9.270;2023-11-19T08:34:11;11.40;92.00
46752;DHT22;32497;48.936;9.270;2023-11-19T08:39:12;11.50;91.80
46752;DHT22;32497;48.936;9.270;2023-11-19T08:44:13;11.50;91.70
46752;DHT22;32497;48.936;9.270;2023-11-19T08:49:16;11.50;91.40
46752;DHT22;32497;48.936;9.270;2023-11-19T08:54:17;11.60;91.30
46752;DHT22;32497;48.936;9.270;2023-11-19T08:59:18;11.50;91.60
46752;DHT22;32497;48.936;9.270;2023-11-19T09:04:20;11.70;91.40
46752;DHT22;32497;48.936;9.270;2023-11-19T09:09:21;11.90;91.40
46752;DHT22;32497;48.936;9.270;2023-11-19T09:14:23;12.10;91.10
46752;DHT22;32497;48.936;9.270;2023-11-19T09:19:25;12.10;90.50
46752;DHT22;32497;48.936;9.270;2023-11-19T09:24:26;12.20;90.70
46752;DHT22;32497;48.936;9.270;2023-11-19T09:29:27;12.30;90.40
46752;DHT22;32497;48.936;9.270;2023-11-19T09:34:30;12.60;90.80
46752;DHT22;32497;48.936;9.270;2023-11-19T09:39:31;12.70;90.50
46752;DHT22;32497;48.936;9.270;2023-11-19T09:44:32;12.60;90.00
46752;DHT22;32497;48.936;9.270;2023-11-19T09:49:35;12.50;88.70
46752;DHT22;32497;48.936;9.270;2023-11-19T09:54:37;12.50;90.40
46752;DHT22;32497;48.936;9.270;2023-11-19T09:59:39;12.70;90.20
46752;DHT22;32497;48.936;9.270;2023-11-19T10:04:43;13.10;89.50
46752;DHT22;32497;48.936;9.270;2023-11-19T10:09:46;13.20;88.60
46752;DHT22;32497;48.936;9.270;2023-11-19T10:14:48;13.00;89.00
46752;DHT22;32497;48.936;9.270;2023-11-19T10:19:50;13.00;89.40
46752;DHT22;32497;48.936;9.270;2023-11-19T10:24:51;13.50;88.10
46752;DHT22;32497;48.936;9.270;2023-11-19T10:29:52;13.40;87.40
46752;DHT22;32497;48.936;9.270;2023-11-19T10:35:05;13.50;86.80
46752;DHT22;32497;48.936;9.270;2023-11-19T10:40:08;13.70;85.30
46752;DHT22;32497;48.936;9.270;2023-11-19T10:45:22;13.50;85.30
46752;DHT22;32497;48.936;9.270;2023-11-19T10:50:24;13.40;84.30
46752;DHT22;32497;48.936;9.270;2023-11-19T10:55:28;13.50;84.20
46752;DHT22;32497;48.936;9.270;2023-11-19T11:00:29;13.90;83.80
46752;DHT22;32497;48.936;9.270;2023-11-19T11:05:33;14.10;82.80
46752;DHT22;32497;48.936;9.270;2023-11-19T11:10:42;14.00;82.80
46752;DHT22;32497;48.936;9.270;2023-11-19T11:15:45;14.30;80.50
46752;DHT22;32497;48.936;9.270;2023-11-19T11:20:47;14.20;80.30
46752;DHT22;32497;48.936;9.270;2023-11-19T11:25:57;14.50;81.60
46752;DHT22;32497;48.936;9.270;2023-11-19T11:31:11;14.70;78.60
46752;DHT22;32497;48.936;9.270;2023-11-19T11:36:20;14.90;77.90
46752;DHT22;32497;48.936;9.270;2023-11-19T11:41:22;14.90;77.40
46752;DHT22;32497;48.936;9.270;2023-11-19T11:52:04;15.40;75.70
46752;DHT22;32497;48.936;9.270;2023-11-19T11:57:08;15.70;75.00
46752;DHT22;32497;48.936;9.270;2023-11-19T12:02:12;15.90;74.50
46752;DHT22;32497;48.936;9.270;2023-11-19T12:07:16;16.10;73.70
46752;DHT22;32497;48.936;9.270;2023-11-19T12:12:27;16.20;72.80
46752;DHT22;32497;48.936;9.270;2023-11-19T12:17:43;15.90;74.30
46752;DHT22;32497;48.936;9.270;2023-11-19T12:22:47;16.00;74.20
46752;DHT22;32497;48.936;9.270;2023-11-19T12:27:49;15.50;73.70
46752;DHT22;32497;48.936;9.270;2023-11-19T12:32:51;15.10;74.90
46752;DHT22;32497;48.936;9.270;2023-11-19T12:37:54;15.20;75.40
46752;DHT22;32497;48.936;9.270;2023-11-19T12:43:02;15.50;74.90
46752;DHT22;32497;48.936;9.270;2023-11-19T12:48:06;15.60;72.20
46752;DHT22;32497;48.936;9.270;2023-11-19T12:53:09;17.50;64.70
46752;DHT22;32497;48.936;9.270;2023-11-19T12:58:10;18.70;60.70
46752;DHT22;32497;48.936;9.270;2023-11-19T13:03:12;18.20;59.90
46752;DHT22;32497;48.936;9.270;2023-11-19T13:08:14;17.50;63.00
46752;DHT22;32497;48.936;9.270;2023-11-19T13:13:15;17.20;63.40
46752;DHT22;32497;48.936;9.270;2023-11-19T13:18:17;18.30;60.50
46752;DHT22;32497;48.936;9.270;2023-11-19T13:23:19;18.20;59.30
46752;DHT22;32497;48.936;9.270;2023-11-19T13:28:21;18.20;59.80
46752;DHT22;32497;48.936;9.270;2023-11-19T13:33:22;17.70;60.70
46752;DHT22;32497;48.936;9.270;2023-11-19T13:38:24;18.10;59.70
46752;DHT22;32497;48.936;9.270;2023-11-19T13:43:25;19.40;54.50
46752;DHT22;32497;48.936;9.270;2023-11-19T13:48:27;19.70;53.70
46752;DHT22;32497;48.936;9.270;2023-11-19T13:53:29;20.70;51.90
46752;DHT22;32497;48.936;9.270;2023-11-19T13:58:30;21.50;50.50
46752;DHT22;32497;48.936;9.270;2023-11-19T14:03:31;21.30;48.80
46752;DHT22;32497;48.936;9.270;2023-11-19T14:08:34;21.40;47.40
46752;DHT22;32497;48.936;9.270;2023-11-19T14:13:35;21.20;47.50
46752;DHT22;32497;48.936;9.270;2023-11-19T14:18:36;20.60;50.20
46752;DHT22;32497;48.936;9.270;2023-11-19T14:23:39;19.70;49.60
46752;DHT22;32497;48.936;9.270;2023-11-19T14:28:40;19.10;51.10
46752;DHT22;32497;48.936;9.270;2023-11-19T14:33:41;16.90;57.60
46752;DHT22;32497;48.936;9.270;2023-11-19T14:38:44;15.40;60.00
46752;DHT22;32497;48.936;9.270;2023-11-19T14:43:45;14.70;63.30
46752;DHT22;32497;48.936;9.270;2023-11-19T14:48:46;14.30;64.60
46752;DHT22;32497;48.936;9.270;2023-11-19T14:53:48;14.10;65.70
46752;DHT22;32497;48.936;9.270;2023-11-19T14:58:49;13.80;66.90
46752;DHT22;32497;48.936;9.270;2023-11-19T15:03:51;13.60;68.30
46752;DHT22;32497;48.936;9.270;2023-11-19T15:08:53;13.40;67.60
46752;DHT22;32497;48.936;9.270;2023-11-19T15:13:54;13.30;69.40
46752;DHT22;32497;48.936;9.270;2023-11-19T15:18:56;13.10;70.70
46752;DHT22;32497;48.936;9.270;2023-11-19T15:23:58;12.90;70.90
46752;DHT22;32497;48.936;9.270;2023-11-19T15:28:59;13.00;71.60
46752;DHT22;32497;48.936;9.270;2023-11-19T15:34:00;12.70;72.90
46752;DHT22;32497;48.936;9.270;2023-11-19T15:39:03;12.60;72.50
46752;DHT22;32497;48.936;9.270;2023-11-19T15:44:04;12.40;74.30
46752;DHT22;32497;48.936;9.270;2023-11-19T15:49:06;12.30;72.90
46752;DHT22;32497;48.936;9.270;2023-11-19T15:54:08;12.30;73.30
46752;DHT22;32497;48.936;9.270;2023-11-19T15:59:09;12.20;73.80
46752;DHT22;32497;48.936;9.270;2023-11-19T16:04:10;12.10;74.60
46752;DHT22;32497;48.936;9.270;2023-11-19T16:09:13;12.00;75.40
46752;DHT22;32497;48.936;9.270;2023-11-19T16:14:14;11.90;74.50
46752;DHT22;32497;48.936;9.270;2023-11-19T16:19:15;11.80;75.80
46752;DHT22;32497;48.936;9.270;2023-11-19T16:24:17;11.90;74.40
46752;DHT22;32497;48.936;9.270;2023-11-19T16:29:19;12.20;73.60
46752;DHT22;32497;48.936;9.270;2023-11-19T16:34:20;12.20;72.60
46752;DHT22;32497;48.936;9.270;2023-11-19T16:39:22;12.30;72.30
46752;DHT22;32497;48.936;9.270;2023-11-19T16:44:23;12.10;72.80
46752;DHT22;32497;48.936;9.270;2023-11-19T16:49:24;12.20;72.30
46752;DHT22;32497;48.936;9.270;2023-11-19T16:54:27;12.10;72.60
46752;DHT22;32497;48.936;9.270;2023-11-19T16:59:28;12.10;72.80
46752;DHT22;32497;48.936;9.270;2023-11-19T17:04:29;12.10;73.00
46752;DHT22;32497;48.936;9.270;2023-11-19T17:09:31;12.00;73.50
46752;DHT22;32497;48.936;9.270;2023-11-19T17:14:32;11.90;74.00
46752;DHT22;32497;48.936;9.270;2023-11-19T17:19:34;11.90;74.00
46752;DHT22;32497;48.936;9.270;2023-11-19T17:24:36;11.70;74.40
46752;DHT22;32497;48.936;9.270;2023-11-19T17:29:37;11.60;74.80
46752;DHT22;32497;48.936;9.270;2023-11-19T17:34:38;11.60;75.40
46752;DHT22;32497;48.936;9.270;2023-11-19T17:39:41;11.60;74.60
46752;DHT22;32497;48.936;9.270;2023-11-19T17:44:42;11.60;74.80
46752;DHT22;32497;48.936;9.270;2023-11-19T17:49:43;11.60;75.70
46752;DHT22;32497;48.936;9.270;2023-11-19T17:54:45;11.50;76.30
46752;DHT22;32497;48.936;9.270;2023-11-19T17:59:46;11.50;76.00
46752;DHT22;32497;48.936;9.270;2023-11-19T18:04:47;11.50;76.00
46752;DHT22;32497;48.936;9.270;2023-11-19T18:09:50;11.50;76.00
46752;DHT22;32497;48.936;9.270;2023-11-19T18:14:51;11.60;75.90
46752;DHT22;32497;48.936;9.270;2023-11-19T18:19:52;11.50;76.70
46752;DHT22;32497;48.936;9.270;2023-11-19T18:24:55;11.50;78.90
46752;DHT22;32497;48.936;9.270;2023-11-19T18:29:56;11.40;80.10
46752;DHT22;32497;48.936;9.270;2023-11-19T18:34:57;11.20;82.80
46752;DHT22;32497;48.936;9.270;2023-11-19T18:39:59;11.00;84.00
46752;DHT22;32497;48.936;9.270;2023-11-19T18:45:00;10.90;84.20
46752;DHT22;32497;48.936;9.270;2023-11-19T18:50:01;11.10;84.90
46752;DHT22;32497;48.936;9.270;2023-11-19T18:55:05;11.00;86.50
46752;DHT22;32497;48.936;9.270;2023-11-19T19:00:07;10.90;87.40
46752;DHT22;32497;48.936;9.270;2023-11-19T19:05:08;10.90;88.00
46752;DHT22;32497;48.936;9.270;2023-11-19T19:10:11;10.80;88.80
46752;DHT22;32497;48.936;9.270;2023-11-19T19:15:12;10.70;89.20
46752;DHT22;32497;48.936;9.270;2023-11-19T19:20:13;10.70;89.00
46752;DHT22;32497;48.936;9.270;2023-11-19T19:25:16;10.60;89.60
46752;DHT22;32497;48.936;9.270;2023-11-19T19:30:17;10.50;89.80
46752;DHT22;32497;48.936;9.270;2023-11-19T19:35:18;10.40;89.80
46752;DHT22;32497;48.936;9.270;2023-11-19T19:40:21;10.30;90.00
46752;DHT22;32497;48.936;9.270;2023-11-19T19:45:22;10.40;89.40
46752;DHT22;32497;48.936;9.270;2023-11-19T19:50:23;10.40;88.90
46752;DHT22;32497;48.936;9.270;2023-11-19T19:55:26;10.20;89.50
46752;DHT22;32497;48.936;9.270;2023-11-19T20:00:27;10.20;89.00
46752;DHT22;32497;48.936;9.270;2023-11-19T20:05:28;10.20;88.00
46752;DHT22;32497;48.936;9.270;2023-11-19T20:10:30;10.10;88.30
46752;DHT22;32497;48.936;9.270;2023-11-19T20:15:32;10.10;87.30
46752;DHT22;32497;48.936;9.270;2023-11-19T20:20:33;10.30;85.60
46752;DHT22;32497;48.936;9.270;2023-11-19T20:25:35;10.30;84.70
46752;DHT22;32497;48.936;9.270;2023-11-19T20:30:36;10.10;85.80
46752;DHT22;32497;48.936;9.270;2023-11-19T20:35:37;10.10;85.30
46752;DHT22;32497;48.936;9.270;2023-11-19T20:40:40;9.90;85.20
46752;DHT22;32497;48.936;9.270;2023-11-19T20:45:41;9.80;85.10
46752;DHT22;32497;48.936;9.270;2023-11-19T20:50:42;9.90;84.20
46752;DHT22;32497;48.936;9.270;2023-11-19T20:55:45;10.10;83.70
46752;DHT22;32497;48.936;9.270;2023-11-19T21:00:46;10.00;83.70
46752;DHT22;32497;48.936;9.270;2023-11-19T21:05:47;9.70;84.80
46752;DHT22;32497;48.936;9.270;2023-11-19T21:10:49;9.40;84.80
46752;DHT22;32497;48.936;9.270;2023-11-19T21:15:50;9.60;84.00
46752;DHT22;32497;48.936;9.270;2023-11-19T21:20:52;9.70;83.80
46752;DHT22;32497;48.936;9.270;2023-11-19T21:25:54;9.60;84.10
46752;DHT22;32497;48.936;9.270;2023-11-19T21:30:56;9.20;85.30
46752;DHT22;32497;48.936;9.270;2023-11-19T21:35:57;9.10;85.40
46752;DHT22;32497;48.936;9.270;2023-11-19T21:41:01;9.10;85.40
46752;DHT22;32497;48.936;9.270;2023-11-19T21:46:02;9.10;85.60
46752;DHT22;32497;48.936;9.270;2023-11-19T21:51:04;8.90;85.70
46752;DHT22;32497;48.936;9.270;2023-11-19T21:56:07;8.70;86.50
46752;DHT22;32497;48.936;9.270;2023-11-19T22:01:08;8.80;86.40
46752;DHT22;32497;48.936;9.270;2023-11-19T22:06:09;8.80;86.00
46752;DHT22;32497;48.936;9.270;2023-11-19T22:11:17;8.90;85.70
46752;DHT22;32497;48.936;9.270;2023-11-19T22:16:18;8.90;85.70
46752;DHT22;32497;48.936;9.270;2023-11-19T22:21:19;9.10;85.00
46752;DHT22;32497;48.936;9.270;2023-11-19T22:26:22;9.40;83.20
46752;DHT22;32497;48.936;9.270;2023-11-19T22:31:23;9.70;82.30
46752;DHT22;32497;48.936;9.270;2023-11-19T22:36:24;9.60;82.30
46752;DHT22;32497;48.936;9.270;2023-11-19T22:41:27;9.50;82.40
46752;DHT22;32497;48.936;9.270;2023-11-19T22:46:28;9.60;82.10
46752;DHT22;32497;48.936;9.270;2023-11-19T22:51:29;9.60;82.40
46752;DHT22;32497;48.936;9.270;2023-11-19T22:56:31;9.70;81.50
46752;DHT22;32497;48.936;9.270;2023-11-19T23:01:32;9.50;82.20
46752;DHT22;32497;48.936;9.270;2023-11-19T23:06:33;9.60;81.20
46752;DHT22;32497;48.936;9.270;2023-11-19T23:11:36;9.70;80.50
46752;DHT22;32497;48.936;9.270;2023-11-19T23:16:37;9.80;79.30
46752;DHT22;32497;48.936;9.270;2023-11-19T23:21:38;9.80;79.10
46752;DHT22;32497;48.936;9.270;2023-11-19T23:26:40;9.70;79.30
46752;DHT22;32497;48.936;9.270;2023-11-19T23:31:41;9.90;78.40
46752;DHT22;32497;48.936;9.270;2023-11-19T23:36:43;10.20;76.20
46752;DHT22;32497;48.936;9.270;2023-11-19T23:41:45;10.20;76.40
46752;DHT22;32497;48.936;9.270;2023-11-19T23:46:46;10.00;76.90
46752;DHT22;32497;48.936;9.270;2023-11-19T23:51:47;10.00;76.70
46752;DHT22;32497;48.936;9.270;2023-11-19T23:56:49;10.10;76.00
